San Francisco, CA

2:57 PM PST on December 04, 2016 (GMT -0800)
SOMA | | Change Station

Elev 23 ft 37.78 °N, 122.41 °W | Updated 12 seconds ago

Mostly Cloudy
Mostly Cloudy
59.0 °F
Feels Like 59.0 °F
N
2.0
Wind Variable Wind from SW
Gusts 8.0 mph

Today
High -- | Low -- °F
--% Chance of Precip.
Yesterday
High -- | Low -- °F
Precip. -- in
Pressure 30.14 in
Visibility 10.0 miles
Clouds Mostly Cloudy 18000 ft
Dew Point 51 °F
Humidity 74%
Rainfall 0.00 in
Snow Depth Not available.
7:09 AM 4:50 PM
Waxing Crescent, 26% visible
METAR KSFO 042156Z 29011KT 10SM BKN180 15/08 A3013 RMK AO2 SLP204 T01500083 $
Pressure 30.14 in
Visibility 10.0 miles
Clouds Mostly Cloudy 18000 ft
Dew Point 51 °F
Humidity 74%
Rainfall 0.00 in
Snow Depth Not available.
7:09 AM 4:50 PM
Waxing Crescent, 26% visible
METAR KSFO 042156Z 29011KT 10SM BKN180 15/08 A3013 RMK AO2 SLP204 T01500083 $

10-Day Weather Forecast

Almanac

Astronomy

Dec. 04, 2016 Rise Set
Actual Time
Civil Twilight
Nautical Twilight
Astronomical Twilight
Moon
Length of Visible Light
Length of Day
Tomorrow will be .
, % of the Moon is Illuminated

Today's Extremes

State Highs State Lows

Community

WunderPhotos

Upload Photos

1,955,686 photos uploaded!

WunderBlog® & News

Nearby

Air Quality

  Air Quality AQ Index Pollutant
Not available.

Snow Depth

Station Depth Elevation

Earthquake Activity

City Distance Mag. Time & Date
Minimum magnitude displayed is 2.5.

Coastal Water Temperatures

Place Temperature

Stations

Nearby Weather Stations

Station Location Temp. Windchill Dew Point Humidity Wind Precip. Elev Updated Type
                   

Watches & Warnings

There are currently no watches in effect.